createdAt,value
2023-05-22T00:01:39.703Z,75.69
2023-05-22T00:04:06.303Z,75.73
2023-05-22T00:06:34.062Z,75.66
2023-05-22T00:09:00.736Z,75.60
2023-05-22T00:11:27.336Z,75.97
2023-05-22T00:13:53.845Z,75.96
2023-05-22T00:16:20.385Z,75.96
2023-05-22T00:18:47.819Z,75.86
2023-05-22T00:21:14.675Z,76.24
2023-05-22T00:23:41.515Z,76.17
2023-05-22T00:26:08.059Z,76.34
2023-05-22T00:28:34.617Z,76.70
2023-05-22T00:31:01.073Z,76.88
2023-05-22T00:33:27.670Z,76.93
2023-05-22T00:35:54.160Z,77.25
2023-05-22T00:38:32.770Z,77.79
2023-05-22T00:41:01.006Z,77.40
2023-05-22T00:43:27.920Z,77.88
2023-05-22T00:45:54.833Z,77.84
2023-05-22T00:48:22.285Z,78.21
2023-05-22T00:50:53.776Z,78.54
2023-05-22T00:53:21.882Z,78.14
2023-05-22T00:55:48.642Z,78.27
2023-05-22T00:58:18.016Z,78.75
2023-05-22T01:00:45.233Z,78.63
2023-05-22T01:03:11.876Z,78.57
2023-05-22T01:05:39.837Z,78.62
2023-05-22T01:08:07.691Z,78.47
2023-05-22T01:10:36.050Z,78.82
2023-05-22T01:13:11.535Z,79.28
2023-05-22T01:15:56.744Z,78.84
2023-05-22T01:18:41.733Z,79.07
2023-05-22T01:21:30.375Z,78.87
2023-05-22T01:24:20.935Z,78.92
2023-05-22T01:26:57.463Z,78.69
2023-05-22T01:29:47.910Z,79.18
2023-05-22T01:32:19.802Z,78.87
2023-05-22T01:34:47.782Z,78.77
2023-05-22T01:37:14.970Z,79.04
2023-05-22T01:39:42.581Z,78.90
2023-05-22T01:42:09.136Z,79.22
2023-05-22T01:44:35.637Z,79.28
2023-05-22T01:47:05.227Z,79.29
2023-05-22T01:49:36.190Z,79.75
2023-05-22T01:52:22.540Z,80.18
2023-05-22T01:54:59.651Z,80.47
2023-05-22T01:57:42.610Z,80.49
2023-05-22T02:00:16.079Z,80.35
2023-05-22T02:02:48.207Z,80.54
2023-05-22T02:05:18.825Z,81.02
2023-05-22T02:07:46.216Z,80.95
2023-05-22T02:10:14.204Z,81.02
2023-05-22T02:12:41.905Z,81.01
2023-05-22T02:15:08.899Z,81.36
2023-05-22T02:17:42.545Z,82.05
2023-05-22T02:20:15.164Z,82.29
2023-05-22T02:22:46.338Z,82.22
2023-05-22T02:25:14.643Z,81.74
2023-05-22T02:27:45.874Z,82.09
2023-05-22T02:30:13.632Z,81.83
2023-05-22T02:32:41.973Z,82.00
2023-05-22T02:35:09.486Z,82.21
2023-05-22T02:37:36.917Z,82.19
2023-05-22T02:40:06.268Z,82.24
2023-05-22T02:42:33.207Z,82.28
2023-05-22T02:45:00.166Z,82.65
2023-05-22T02:47:27.056Z,82.90
2023-05-22T02:49:53.664Z,82.98
2023-05-22T02:52:20.892Z,83.47
2023-05-22T02:54:47.413Z,83.30
2023-05-22T02:57:14.007Z,83.60
2023-05-22T02:59:40.780Z,83.70
2023-05-22T03:02:07.951Z,83.84
2023-05-22T03:04:38.305Z,84.34
2023-05-22T03:07:05.566Z,82.45
2023-05-22T03:09:32.103Z,83.70
2023-05-22T03:11:58.571Z,84.26
2023-05-22T03:14:24.997Z,84.22
2023-05-22T03:16:51.597Z,84.44
2023-05-22T03:19:18.235Z,84.25
2023-05-22T03:21:44.754Z,84.47
2023-05-22T03:24:12.735Z,84.59
2023-05-22T03:26:39.757Z,84.59
2023-05-22T03:29:06.391Z,84.43
2023-05-22T03:31:34.056Z,84.52
2023-05-22T03:34:01.132Z,84.48
2023-05-22T03:36:28.269Z,84.34
2023-05-22T03:38:55.933Z,84.32
2023-05-22T03:41:22.448Z,84.11
2023-05-22T03:43:48.957Z,84.12
2023-05-22T03:46:15.771Z,83.73
2023-05-22T03:48:42.386Z,83.48
2023-05-22T03:51:08.949Z,83.08
2023-05-22T03:53:35.585Z,82.91
2023-05-22T03:56:02.256Z,82.69
2023-05-22T03:58:28.921Z,82.33
2023-05-22T04:00:58.515Z,81.79
2023-05-22T04:03:25.343Z,81.48
2023-05-22T04:05:51.997Z,81.40
2023-05-22T04:08:18.684Z,80.99
2023-05-22T04:10:46.582Z,80.87
2023-05-22T04:13:13.730Z,80.38
2023-05-22T04:15:41.747Z,80.15
2023-05-22T04:18:08.551Z,79.98
2023-05-22T04:20:39.052Z,79.93
2023-05-22T04:23:07.210Z,79.34
2023-05-22T04:25:34.352Z,79.43
2023-05-22T04:28:04.071Z,79.14
2023-05-22T04:30:33.981Z,79.21
2023-05-22T04:33:01.548Z,78.30
2023-05-22T04:35:29.527Z,77.60
2023-05-22T04:38:02.218Z,77.73
2023-05-22T04:40:30.388Z,76.47
2023-05-22T04:42:59.958Z,75.90
2023-05-22T04:45:30.421Z,75.93
2023-05-22T04:47:57.054Z,74.35
2023-05-22T04:50:24.139Z,73.77
2023-05-22T04:52:50.749Z,73.38
2023-05-22T04:55:17.493Z,72.11
2023-05-22T04:57:47.428Z,71.72
2023-05-22T05:00:16.249Z,70.76
2023-05-22T05:02:43.525Z,69.66
2023-05-22T05:05:10.273Z,68.74
2023-05-22T05:07:40.188Z,67.49
2023-05-22T05:10:07.487Z,67.40
2023-05-22T05:12:34.148Z,67.47
2023-05-22T05:15:00.951Z,66.76
2023-05-22T05:17:27.678Z,66.20
2023-05-22T05:19:54.400Z,65.75
2023-05-22T05:22:20.933Z,64.73
2023-05-22T05:24:47.432Z,64.07
2023-05-22T05:27:14.063Z,64.09
2023-05-22T05:29:43.444Z,63.95
2023-05-22T05:32:11.619Z,64.01
2023-05-22T05:34:38.221Z,62.48
2023-05-22T05:37:05.058Z,60.95
2023-05-22T05:39:31.536Z,61.73
2023-05-22T05:41:58.159Z,63.24
2023-05-22T05:44:24.760Z,61.21
2023-05-22T05:46:52.564Z,59.86
2023-05-22T05:49:20.026Z,58.67
2023-05-22T05:51:46.525Z,58.18
2023-05-22T05:54:13.064Z,57.44
2023-05-22T05:56:39.902Z,56.56
2023-05-22T05:59:06.422Z,56.76
2023-05-22T06:01:35.190Z,55.17
2023-05-22T06:04:03.410Z,55.09
2023-05-22T06:06:36.630Z,54.00
2023-05-22T06:09:06.185Z,55.95
2023-05-22T06:11:33.395Z,54.86
2023-05-22T06:14:02.838Z,53.37
2023-05-22T06:16:29.780Z,53.44
2023-05-22T06:18:58.842Z,52.29
2023-05-22T06:21:26.099Z,52.75
2023-05-22T06:23:52.781Z,53.21
2023-05-22T06:26:19.375Z,54.39
2023-05-22T06:28:45.846Z,53.33
2023-05-22T06:31:15.381Z,53.15
2023-05-22T06:33:43.325Z,53.31
2023-05-22T06:36:11.481Z,52.12
2023-05-22T06:38:38.133Z,52.37
2023-05-22T06:41:05.527Z,53.49
2023-05-22T06:43:32.349Z,51.71
2023-05-22T06:45:59.001Z,51.41
2023-05-22T06:48:25.494Z,52.95
2023-05-22T06:50:51.940Z,51.00
2023-05-22T06:53:18.522Z,51.23
2023-05-22T06:55:45.176Z,51.55
2023-05-22T06:58:11.755Z,51.41
2023-05-22T07:00:38.534Z,51.05
2023-05-22T07:03:06.855Z,53.27
2023-05-22T07:05:33.612Z,49.00
2023-05-22T07:08:00.221Z,48.79
2023-05-22T07:10:27.834Z,49.35
2023-05-22T07:12:54.810Z,49.00
2023-05-22T07:15:21.550Z,49.49
2023-05-22T07:17:49.255Z,46.33
2023-05-22T07:20:18.203Z,47.23
2023-05-22T07:22:44.733Z,44.41
2023-05-22T07:25:11.300Z,43.79
2023-05-22T07:27:37.949Z,43.03
2023-05-22T07:30:04.857Z,41.73
2023-05-22T07:32:31.441Z,40.86
2023-05-22T07:34:58.068Z,41.23
2023-05-22T07:37:24.672Z,41.98
2023-05-22T07:39:51.240Z,40.44
2023-05-22T07:42:17.802Z,40.41
2023-05-22T07:44:44.321Z,41.55
2023-05-22T07:47:11.004Z,41.70
2023-05-22T07:49:37.500Z,41.66
2023-05-22T07:52:04.202Z,40.52
2023-05-22T07:54:30.888Z,40.42
2023-05-22T07:56:57.680Z,40.78
2023-05-22T07:59:25.415Z,41.71
2023-05-22T08:01:52.281Z,39.92
2023-05-22T08:04:18.920Z,40.28
2023-05-22T08:06:45.656Z,39.91
2023-05-22T08:09:12.528Z,40.75
2023-05-22T08:11:42.095Z,39.75
2023-05-22T08:14:08.947Z,40.61
2023-05-22T08:16:35.695Z,39.69
2023-05-22T08:19:03.142Z,40.66
2023-05-22T08:21:29.847Z,38.85
2023-05-22T08:23:56.295Z,39.81
2023-05-22T08:26:23.290Z,40.11
2023-05-22T08:28:49.788Z,39.13
2023-05-22T08:31:16.325Z,38.37
2023-05-22T08:33:43.009Z,38.80
2023-05-22T08:36:09.768Z,38.47
2023-05-22T08:38:37.023Z,39.26
2023-05-22T08:41:04.948Z,37.50
2023-05-22T08:43:31.474Z,36.31
2023-05-22T08:46:05.913Z,36.78
2023-05-22T08:48:33.550Z,35.61
2023-05-22T08:51:07.409Z,35.99
2023-05-22T08:53:38.813Z,35.99
2023-05-22T08:56:06.905Z,35.63
2023-05-22T08:58:35.808Z,35.75
2023-05-22T09:01:04.437Z,35.17
2023-05-22T09:03:34.899Z,34.54
2023-05-22T09:06:02.208Z,34.69
2023-05-22T09:08:29.069Z,34.97
2023-05-22T09:10:56.392Z,34.00
2023-05-22T09:13:27.832Z,34.54
2023-05-22T09:15:59.629Z,34.83
2023-05-22T09:18:29.896Z,34.15
2023-05-22T09:21:00.015Z,34.93
2023-05-22T09:23:28.080Z,34.72
2023-05-22T09:25:59.030Z,33.75
2023-05-22T09:28:26.217Z,33.69
2023-05-22T09:30:54.767Z,33.50
2023-05-22T09:33:24.144Z,32.51
2023-05-22T09:35:52.333Z,32.34
2023-05-22T09:38:19.040Z,32.62
2023-05-22T09:40:45.579Z,30.88
2023-05-22T09:43:12.657Z,32.20
2023-05-22T09:45:39.414Z,30.62
2023-05-22T09:48:06.774Z,30.89
2023-05-22T09:50:33.504Z,31.50
2023-05-22T09:53:05.033Z,31.84
2023-05-22T09:55:32.125Z,30.20
2023-05-22T09:58:03.644Z,30.05
2023-05-22T10:00:31.616Z,30.50
2023-05-22T10:03:04.068Z,28.33
2023-05-22T10:05:32.070Z,27.96
2023-05-22T10:08:26.328Z,28.08
2023-05-22T10:10:53.334Z,28.50
2023-05-22T10:13:23.647Z,28.67
2023-05-22T10:15:50.927Z,26.49
2023-05-22T10:18:18.465Z,27.97
2023-05-22T10:20:47.061Z,27.19
2023-05-22T10:23:16.450Z,28.20
2023-05-22T10:25:44.566Z,28.61
2023-05-22T10:28:11.606Z,26.68
2023-05-22T10:30:42.614Z,27.01
2023-05-22T10:33:18.379Z,25.49
2023-05-22T10:36:16.492Z,25.95
2023-05-22T10:38:58.534Z,24.83
2023-05-22T10:41:26.284Z,25.48
2023-05-22T10:43:56.984Z,24.48
2023-05-22T10:46:23.868Z,24.48
2023-05-22T10:48:52.775Z,25.09
2023-05-22T10:51:23.146Z,25.32
2023-05-22T10:53:58.170Z,25.46
2023-05-22T10:56:36.041Z,27.26
2023-05-22T10:59:08.042Z,25.54
2023-05-22T11:01:37.538Z,26.34
2023-05-22T11:04:04.274Z,26.29
2023-05-22T11:06:45.774Z,26.21
2023-05-22T11:09:31.288Z,27.91
2023-05-22T11:12:22.584Z,26.72
2023-05-22T11:15:07.010Z,26.31
2023-05-22T11:17:39.780Z,26.91
2023-05-22T11:20:28.332Z,27.57
2023-05-22T11:23:03.761Z,27.44
2023-05-22T11:25:33.318Z,27.03
2023-05-22T11:28:02.836Z,26.97
2023-05-22T11:30:32.671Z,26.70
2023-05-22T11:33:00.834Z,26.91
2023-05-22T11:35:28.445Z,26.40
2023-05-22T11:37:56.362Z,27.50
2023-05-22T11:40:26.893Z,27.39
2023-05-22T11:42:54.122Z,27.23
2023-05-22T11:45:21.434Z,27.52
2023-05-22T11:47:48.830Z,27.41
2023-05-22T11:50:22.635Z,27.44
2023-05-22T11:52:56.688Z,27.17
2023-05-22T11:55:23.240Z,25.99
2023-05-22T11:57:49.803Z,26.13
2023-05-22T12:00:17.020Z,26.83
2023-05-22T12:02:47.542Z,25.47
2023-05-22T12:05:15.902Z,25.06
2023-05-22T12:07:43.149Z,24.61
2023-05-22T12:10:14.608Z,24.55
2023-05-22T12:12:42.450Z,24.35
2023-05-22T12:15:09.803Z,24.92
2023-05-22T12:17:40.071Z,24.04
2023-05-22T12:20:07.418Z,23.94
2023-05-22T12:22:33.979Z,24.21
2023-05-22T12:25:00.546Z,24.27
2023-05-22T12:27:33.362Z,24.60
2023-05-22T12:30:10.773Z,24.39
2023-05-22T12:32:37.378Z,24.70
2023-05-22T12:35:04.063Z,25.03
2023-05-22T12:37:32.005Z,25.54
2023-05-22T12:40:00.237Z,25.93
2023-05-22T12:42:27.746Z,25.88
2023-05-22T12:44:56.280Z,24.31
2023-05-22T12:47:24.065Z,24.75
2023-05-22T12:49:51.207Z,23.58
2023-05-22T12:52:17.985Z,24.07
2023-05-22T12:54:44.468Z,23.09
2023-05-22T12:57:11.738Z,23.04
2023-05-22T12:59:38.273Z,23.80
2023-05-22T13:02:05.548Z,24.05
2023-05-22T13:04:32.401Z,23.98
2023-05-22T13:06:58.945Z,23.45
2023-05-22T13:09:25.534Z,22.55
2023-05-22T13:11:52.160Z,22.93
2023-05-22T13:14:18.810Z,23.28
2023-05-22T13:16:45.270Z,22.47
2023-05-22T13:19:11.993Z,24.01
2023-05-22T13:21:38.488Z,22.91
2023-05-22T13:24:05.061Z,23.48
2023-05-22T13:26:31.581Z,23.32
2023-05-22T13:28:58.024Z,23.35
2023-05-22T13:31:24.861Z,23.85
2023-05-22T13:33:51.432Z,23.54
2023-05-22T13:36:18.429Z,24.21
2023-05-22T13:38:44.925Z,23.27
2023-05-22T13:41:11.796Z,24.06
2023-05-22T13:43:38.370Z,24.21
2023-05-22T13:46:04.905Z,24.25
2023-05-22T13:48:31.569Z,24.58
2023-05-22T13:50:58.096Z,24.81
2023-05-22T13:53:24.935Z,24.60
2023-05-22T13:55:51.705Z,25.55
2023-05-22T13:58:18.284Z,25.95
2023-05-22T14:00:44.811Z,25.95
2023-05-22T14:03:17.295Z,27.25
2023-05-22T14:05:44.556Z,25.13
2023-05-22T14:08:11.183Z,26.44
2023-05-22T14:10:38.600Z,26.58
2023-05-22T14:13:05.477Z,25.88
2023-05-22T14:15:32.040Z,28.57
2023-05-22T14:17:58.576Z,25.36
2023-05-22T14:20:25.173Z,24.98
2023-05-22T14:22:57.556Z,24.78
2023-05-22T14:25:28.767Z,24.57
2023-05-22T14:27:55.322Z,23.63
2023-05-22T14:30:21.868Z,23.50
2023-05-22T14:32:48.812Z,24.03
2023-05-22T14:35:16.741Z,25.15
2023-05-22T14:37:43.971Z,24.64
2023-05-22T14:40:11.106Z,25.38
2023-05-22T14:42:39.164Z,24.22
2023-05-22T14:45:06.089Z,24.80
2023-05-22T14:47:32.693Z,24.37
2023-05-22T14:50:10.067Z,25.07
2023-05-22T14:52:45.378Z,25.82
2023-05-22T14:55:11.943Z,26.18
2023-05-22T14:57:38.497Z,26.23
2023-05-22T15:00:09.978Z,26.24
2023-05-22T15:02:37.503Z,27.52
2023-05-22T15:05:04.722Z,27.53
2023-05-22T15:07:43.167Z,27.89
2023-05-22T15:10:11.056Z,27.90
2023-05-22T15:12:40.056Z,28.17
2023-05-22T15:15:07.266Z,27.82
2023-05-22T15:17:33.860Z,27.29
2023-05-22T15:20:00.420Z,26.89
2023-05-22T15:22:26.937Z,32.13
2023-05-22T15:25:08.082Z,34.11
2023-05-22T15:27:35.525Z,37.03
2023-05-22T15:30:03.305Z,38.68
2023-05-22T15:32:32.014Z,40.41
2023-05-22T15:34:58.564Z,42.76
2023-05-22T15:37:24.995Z,46.01
2023-05-22T15:39:51.507Z,47.49
2023-05-22T15:42:18.062Z,50.51
2023-05-22T15:44:44.542Z,52.41
2023-05-22T15:47:11.188Z,54.64
2023-05-22T15:49:37.808Z,55.62
2023-05-22T15:52:04.370Z,58.38
2023-05-22T15:54:31.077Z,61.44
2023-05-22T15:56:57.840Z,62.60
2023-05-22T15:59:24.361Z,65.07
2023-05-22T16:01:50.988Z,68.50
2023-05-22T16:04:17.530Z,69.48
2023-05-22T16:06:44.110Z,70.54
2023-05-22T16:09:11.022Z,72.06
2023-05-22T16:11:37.932Z,72.59
2023-05-22T16:14:04.776Z,74.29
2023-05-22T16:16:31.399Z,75.12
2023-05-22T16:18:57.994Z,77.09
2023-05-22T16:21:26.457Z,76.70
2023-05-22T16:23:53.054Z,77.97
2023-05-22T16:26:19.843Z,78.95
2023-05-22T16:28:46.310Z,78.78
2023-05-22T16:31:13.960Z,80.01
2023-05-22T16:33:40.457Z,79.78
2023-05-22T16:36:07.303Z,80.04
2023-05-22T16:38:33.882Z,81.42
2023-05-22T16:41:01.226Z,82.94
2023-05-22T16:43:27.912Z,81.84
2023-05-22T16:45:54.469Z,83.24
2023-05-22T16:48:21.186Z,82.73
2023-05-22T16:50:47.791Z,83.51
2023-05-22T16:53:17.100Z,83.26
2023-05-22T16:55:43.826Z,83.81
2023-05-22T16:58:11.755Z,86.03
2023-05-22T17:00:39.971Z,85.70
2023-05-22T17:03:08.084Z,85.22
2023-05-22T17:05:35.829Z,85.71
2023-05-22T17:08:02.955Z,86.91
2023-05-22T17:10:29.540Z,87.33
2023-05-22T17:12:56.454Z,86.99
2023-05-22T17:15:22.990Z,86.66
2023-05-22T17:17:49.844Z,86.70
2023-05-22T17:20:16.791Z,87.11
2023-05-22T17:22:43.650Z,87.96
2023-05-22T17:25:10.438Z,88.55
2023-05-22T17:27:37.154Z,89.17
2023-05-22T17:30:05.225Z,87.71
2023-05-22T17:32:31.888Z,87.70
2023-05-22T17:34:58.968Z,88.18
2023-05-22T17:37:25.528Z,87.89
2023-05-22T17:39:52.041Z,88.16
2023-05-22T17:42:18.672Z,87.42
2023-05-22T17:44:45.317Z,87.76
2023-05-22T17:47:13.323Z,88.10
2023-05-22T17:49:40.002Z,88.23
2023-05-22T17:52:08.493Z,87.98
2023-05-22T17:54:35.628Z,87.41
2023-05-22T17:57:04.047Z,87.53
2023-05-22T17:59:32.255Z,86.55
2023-05-22T18:01:58.979Z,86.68
2023-05-22T18:04:25.510Z,85.68
2023-05-22T18:06:52.183Z,85.23
2023-05-22T18:09:18.844Z,85.68
2023-05-22T18:11:45.342Z,85.77
2023-05-22T18:14:12.059Z,85.57
2023-05-22T18:16:38.667Z,85.46
2023-05-22T18:19:05.249Z,84.67
2023-05-22T18:21:32.253Z,84.35
2023-05-22T18:23:59.059Z,84.99
2023-05-22T18:26:26.781Z,86.12
2023-05-22T18:28:53.310Z,86.50
2023-05-22T18:31:20.016Z,86.55
2023-05-22T18:33:46.701Z,87.23
2023-05-22T18:36:13.271Z,87.83
2023-05-22T18:38:39.936Z,87.28
2023-05-22T18:41:07.074Z,86.63
2023-05-22T18:43:33.773Z,86.85
2023-05-22T18:46:00.300Z,87.06
2023-05-22T18:48:28.171Z,87.27
2023-05-22T18:50:57.282Z,86.91
2023-05-22T18:53:25.347Z,87.65
2023-05-22T18:55:52.501Z,87.44
2023-05-22T18:58:19.099Z,87.87
2023-05-22T19:00:45.699Z,87.82
2023-05-22T19:03:12.349Z,88.46
2023-05-22T19:05:38.895Z,88.65
2023-05-22T19:08:06.124Z,89.02
2023-05-22T19:10:33.058Z,89.16
2023-05-22T19:12:59.804Z,89.27
2023-05-22T19:15:26.275Z,89.39
2023-05-22T19:17:52.896Z,89.41
2023-05-22T19:20:19.509Z,89.59
2023-05-22T19:22:46.399Z,90.01
2023-05-22T19:25:12.878Z,89.54
2023-05-22T19:27:39.598Z,89.97
2023-05-22T19:30:07.237Z,90.11
2023-05-22T19:32:33.944Z,90.22
2023-05-22T19:35:00.495Z,90.70
2023-05-22T19:37:26.983Z,91.15
2023-05-22T19:39:54.287Z,90.50
2023-05-22T19:42:20.780Z,90.75
2023-05-22T19:44:47.264Z,90.93
2023-05-22T19:47:13.919Z,91.01
2023-05-22T19:49:40.570Z,91.36
2023-05-22T19:52:07.202Z,91.60
2023-05-22T19:54:35.233Z,92.00
2023-05-22T19:57:03.176Z,92.10
2023-05-22T19:59:29.731Z,91.75
2023-05-22T20:01:56.292Z,91.75
2023-05-22T20:04:23.215Z,91.63
2023-05-22T20:06:49.768Z,91.37
2023-05-22T20:09:16.751Z,91.80
2023-05-22T20:11:43.287Z,91.74
2023-05-22T20:14:09.843Z,92.49
2023-05-22T20:16:36.535Z,92.01
2023-05-22T20:19:04.069Z,92.31
2023-05-22T20:21:31.032Z,92.00
2023-05-22T20:23:57.642Z,92.49
2023-05-22T20:26:24.211Z,92.93
2023-05-22T20:28:50.835Z,93.29
2023-05-22T20:31:17.391Z,93.16
2023-05-22T20:33:44.018Z,92.98
2023-05-22T20:36:10.708Z,93.47
2023-05-22T20:38:37.170Z,93.56
2023-05-22T20:41:08.144Z,93.88
2023-05-22T20:43:36.302Z,93.90
2023-05-22T20:46:03.084Z,93.88
2023-05-22T20:48:29.694Z,93.79
2023-05-22T20:50:56.484Z,93.96
2023-05-22T20:53:24.451Z,93.70
2023-05-22T20:55:53.112Z,93.87
2023-05-22T20:58:19.950Z,93.56
2023-05-22T21:00:49.210Z,93.46
2023-05-22T21:03:16.534Z,93.72
2023-05-22T21:05:43.120Z,94.39
2023-05-22T21:08:09.569Z,94.39
2023-05-22T21:10:36.081Z,94.03
2023-05-22T21:13:02.606Z,94.13
2023-05-22T21:15:29.029Z,94.53
2023-05-22T21:17:55.615Z,94.81
2023-05-22T21:20:22.473Z,94.53
2023-05-22T21:22:48.986Z,94.71
2023-05-22T21:25:15.618Z,94.99
2023-05-22T21:27:42.367Z,94.97
2023-05-22T21:30:12.591Z,95.35
2023-05-22T21:32:38.966Z,93.16
2023-05-22T21:35:05.989Z,94.55
2023-05-22T21:37:32.483Z,94.79
2023-05-22T21:39:58.973Z,94.87
2023-05-22T21:42:26.209Z,95.31
2023-05-22T21:44:52.806Z,95.34
2023-05-22T21:47:19.353Z,95.38
2023-05-22T21:49:45.806Z,95.77
2023-05-22T21:52:12.281Z,95.95
2023-05-22T21:54:39.549Z,96.05
2023-05-22T21:57:06.316Z,95.99
2023-05-22T21:59:32.949Z,96.05
2023-05-22T22:01:59.508Z,96.17
2023-05-22T22:04:26.061Z,96.34
2023-05-22T22:06:52.600Z,95.67
2023-05-22T22:09:19.112Z,96.29
2023-05-22T22:11:45.778Z,95.60
2023-05-22T22:14:12.256Z,95.94
2023-05-22T22:16:40.759Z,95.92
2023-05-22T22:19:07.405Z,96.18
2023-05-22T22:21:34.203Z,96.30
2023-05-22T22:24:00.729Z,96.18
2023-05-22T22:26:30.552Z,96.41
2023-05-22T22:28:57.545Z,96.25
2023-05-22T22:31:24.552Z,96.68
2023-05-22T22:33:51.132Z,96.62
2023-05-22T22:36:17.630Z,96.91
2023-05-22T22:38:44.117Z,97.26
2023-05-22T22:41:11.080Z,96.84
2023-05-22T22:43:37.714Z,96.87
2023-05-22T22:46:04.201Z,96.75
2023-05-22T22:48:30.826Z,97.16
2023-05-22T22:50:58.096Z,96.84
2023-05-22T22:53:25.011Z,96.83
2023-05-22T22:55:57.595Z,97.80
2023-05-22T22:58:24.172Z,97.09
2023-05-22T23:00:50.926Z,97.01
2023-05-22T23:03:17.425Z,97.21
2023-05-22T23:05:44.053Z,97.24
2023-05-22T23:08:11.160Z,96.95
2023-05-22T23:10:37.751Z,97.22
2023-05-22T23:13:04.293Z,97.30
2023-05-22T23:15:30.767Z,97.25
2023-05-22T23:17:57.419Z,97.54
2023-05-22T23:20:23.961Z,97.43
2023-05-22T23:22:51.147Z,97.22
2023-05-22T23:25:17.677Z,97.39
2023-05-22T23:27:44.250Z,97.35
2023-05-22T23:30:11.370Z,97.16
2023-05-22T23:32:37.868Z,97.18
2023-05-22T23:35:05.340Z,97.16
2023-05-22T23:37:31.828Z,97.31
2023-05-22T23:39:58.268Z,97.36
2023-05-22T23:42:25.640Z,97.81
2023-05-22T23:44:52.111Z,97.72
2023-05-22T23:47:19.059Z,97.96
2023-05-22T23:49:45.689Z,98.13
2023-05-22T23:52:12.291Z,97.91
2023-05-22T23:54:39.021Z,98.10
2023-05-22T23:57:05.608Z,98.13
2023-05-22T23:59:32.056Z,97.98
